Time;durP1;ratioP1;P1;durP2;ratioP2;P2;SDS_P1;SDS_P2;PMS_P1;PMS_P2;Temp;Humidity;BMP_temperature;BMP_pressure;BME280_temperature;BME280_humidity;BME280_pressure;Samples;Min_cycle;Max_cycle;Signal;HPM_P1;HPM_P2
2022/09/15 00:00:42;;;;;;;5.73;2.03;;;;;;;22.47;64.26;96477.59;5064056;28;20665;-72
2022/09/15 00:03:07;;;;;;;3.77;2.20;;;;;;;22.49;64.27;96474.72;5067497;28;20201;-70
2022/09/15 00:05:33;;;;;;;6.83;2.00;;;;;;;22.47;64.17;96482.94;5061186;28;20270;-70
2022/09/15 00:07:58;;;;;;;6.40;2.37;;;;;;;22.45;64.34;96470.91;5064019;28;20206;-71
2022/09/15 00:10:24;;;;;;;2.37;1.77;;;;;;;22.45;64.43;96469.03;5063408;28;20658;-71
2022/09/15 00:12:49;;;;;;;2.40;2.00;;;;;;;22.43;64.31;96463.13;5063798;28;20304;-70
2022/09/15 00:15:16;;;;;;;5.07;2.10;;;;;;;22.35;64.22;96461.69;5066514;28;20210;-71
2022/09/15 00:17:42;;;;;;;3.03;1.73;;;;;;;22.33;64.39;96462.97;5054483;28;20198;-70
2022/09/15 00:20:08;;;;;;;2.03;1.30;;;;;;;22.24;64.13;96466.06;5065772;28;20432;-70
2022/09/15 00:22:34;;;;;;;3.67;1.77;;;;;;;22.21;64.19;96452.41;5054793;28;20425;-70
2022/09/15 00:24:59;;;;;;;6.50;1.80;;;;;;;22.29;63.95;96462.66;5061010;28;20461;-72
2022/09/15 00:27:24;;;;;;;1.70;1.27;;;;;;;22.25;63.49;96457.00;5068309;28;20221;-69
2022/09/15 00:29:50;;;;;;;2.80;1.40;;;;;;;22.33;63.23;96454.97;5062795;28;20316;-70
2022/09/15 00:32:16;;;;;;;11.10;1.73;;;;;;;22.35;62.96;96450.19;5060216;28;20197;-70
2022/09/15 00:34:41;;;;;;;4.20;1.50;;;;;;;22.31;62.90;96455.22;5065722;28;20276;-71
2022/09/15 00:37:07;;;;;;;1.67;1.27;;;;;;;22.31;62.83;96449.88;5058966;28;20226;-70
2022/09/15 00:39:33;;;;;;;1.60;1.50;;;;;;;22.33;62.77;96452.28;5064303;28;20612;-70
2022/09/15 00:41:58;;;;;;;3.10;1.50;;;;;;;22.30;63.04;96453.59;5060758;28;20179;-69
2022/09/15 00:44:23;;;;;;;5.10;1.40;;;;;;;22.30;62.79;96450.94;5068601;28;20352;-70
2022/09/15 00:46:52;;;;;;;1.40;1.17;;;;;;;22.33;62.68;96455.78;5054396;28;20233;-70
2022/09/15 00:49:22;;;;;;;4.17;1.67;;;;;;;22.29;62.88;96451.97;5034043;28;20186;-70
2022/09/15 00:52:08;;;;;;;3.07;1.10;;;;;;;22.25;63.03;96450.84;5064713;28;20920;-70
2022/09/15 00:54:51;;;;;;;4.97;1.47;;;;;;;22.25;63.07;96448.19;5046446;28;20908;-69
2022/09/15 00:57:48;;;;;;;3.63;1.30;;;;;;;22.27;63.32;96450.63;5033058;28;20466;-69
2022/09/15 01:00:17;;;;;;;2.20;1.20;;;;;;;22.22;63.54;96441.47;5049718;28;20474;-71
2022/09/15 01:02:43;;;;;;;2.83;1.73;;;;;;;22.21;63.27;96453.19;5067108;28;21007;-70
2022/09/15 01:05:10;;;;;;;2.07;1.70;;;;;;;22.10;64.05;96451.44;5055382;28;20417;-69
2022/09/15 01:07:45;;;;;;;5.27;1.20;;;;;;;22.11;63.86;96455.72;5054200;28;20446;-71
2022/09/15 01:10:14;;;;;;;4.47;1.73;;;;;;;22.08;64.32;96461.56;5060909;28;20967;-71
2022/09/15 01:12:41;;;;;;;5.23;1.57;;;;;;;21.95;64.56;96457.38;5054071;28;20520;-69
2022/09/15 01:15:06;;;;;;;4.13;1.50;;;;;;;22.08;64.27;96453.53;5065852;28;20818;-70
2022/09/15 01:17:50;;;;;;;1.83;1.40;;;;;;;22.06;64.06;96451.13;5061646;28;20543;-70
2022/09/15 01:20:46;;;;;;;3.00;1.93;;;;;;;22.02;64.40;96452.66;5058453;28;20425;-70
2022/09/15 01:23:47;;;;;;;4.97;1.40;;;;;;;21.96;64.82;96458.16;5060837;28;20815;-69
2022/09/15 01:26:41;;;;;;;4.77;1.60;;;;;;;21.97;64.67;96457.13;5059973;28;20428;-70
2022/09/15 01:29:24;;;;;;;2.03;1.63;;;;;;;21.92;64.70;96440.00;5066193;28;20428;-70
2022/09/15 01:34:45;;;;;;;3.53;1.40;;;;;;;21.97;64.31;96427.78;5067486;28;20413;-70
2022/09/15 01:37:16;;;;;;;4.23;1.70;;;;;;;22.00;64.31;96422.75;5059293;28;20983;-72
2022/09/15 01:39:44;;;;;;;3.23;1.47;;;;;;;21.97;64.09;96428.59;5069755;28;20420;-71
2022/09/15 01:42:12;;;;;;;5.03;1.57;;;;;;;21.91;63.93;96435.72;5063463;28;20425;-70
2022/09/15 01:44:44;;;;;;;4.67;1.50;;;;;;;21.95;64.09;96436.03;5071404;28;20512;-70
2022/09/15 01:47:12;;;;;;;1.60;1.30;;;;;;;21.91;63.82;96434.91;5051704;28;20453;-71
2022/09/15 01:49:49;;;;;;;5.20;1.40;;;;;;;21.81;63.80;96424.09;5072506;28;20421;-70
2022/09/15 01:52:17;;;;;;;2.83;1.43;;;;;;;21.82;63.83;96421.16;5063688;28;20436;-70
2022/09/15 01:54:47;;;;;;;2.07;1.80;;;;;;;21.74;64.01;96425.03;5065144;28;20425;-72
2022/09/15 01:57:16;;;;;;;1.50;1.40;;;;;;;21.72;63.98;96431.66;5065409;28;20469;-70
2022/09/15 01:59:43;;;;;;;2.80;1.30;;;;;;;21.76;63.81;96436.28;5067043;28;20531;-69
2022/09/15 02:02:21;;;;;;;2.13;1.33;;;;;;;21.79;63.79;96427.78;5067264;28;20988;-71
2022/09/15 02:04:53;;;;;;;4.83;1.47;;;;;;;21.67;63.90;96434.28;5066568;28;20501;-70
2022/09/15 02:07:38;;;;;;;7.97;1.83;;;;;;;21.74;63.64;96432.25;5060460;28;20984;-70
2022/09/15 02:10:14;;;;;;;2.23;1.20;;;;;;;21.67;63.51;96426.28;5067223;28;20436;-70
2022/09/15 02:13:23;;;;;;;4.13;1.47;;;;;;;21.77;63.52;96424.56;5057957;28;20430;-70
2022/09/15 02:15:52;;;;;;;2.20;1.30;;;;;;;21.73;63.45;96425.28;5019360;28;20476;-70
2022/09/15 02:18:31;;;;;;;2.83;1.30;;;;;;;21.71;63.11;96428.22;5057407;28;20440;-70
2022/09/15 02:21:07;;;;;;;5.20;1.20;;;;;;;21.77;63.10;96419.22;5023407;28;20517;-70
2022/09/15 02:23:39;;;;;;;4.80;1.13;;;;;;;21.75;63.30;96426.66;5048367;28;20848;-71
2022/09/15 02:26:15;;;;;;;4.27;1.80;;;;;;;21.80;62.97;96412.59;5040209;28;20431;-71
2022/09/15 02:28:42;;;;;;;3.27;1.40;;;;;;;21.75;63.04;96415.19;5062807;28;20432;-71
2022/09/15 02:31:10;;;;;;;4.70;1.40;;;;;;;21.80;63.02;96423.25;5067202;28;20448;-71
2022/09/15 02:33:40;;;;;;;3.40;1.37;;;;;;;21.81;62.60;96424.88;5056422;28;20470;-71
2022/09/15 02:36:06;;;;;;;1.57;1.20;;;;;;;21.85;62.71;96430.56;5069177;28;20564;-71
2022/09/15 02:38:36;;;;;;;1.33;1.10;;;;;;;21.86;62.53;96430.28;5064787;28;20510;-72
2022/09/15 02:41:02;;;;;;;3.00;1.40;;;;;;;21.86;62.72;96422.28;5069145;28;20474;-71
2022/09/15 02:43:28;;;;;;;3.50;1.30;;;;;;;21.85;62.72;96420.69;5063695;28;20457;-70
2022/09/15 02:45:53;;;;;;;2.80;1.50;;;;;;;21.80;62.64;96409.91;5055260;28;20179;-71
2022/09/15 02:48:19;;;;;;;4.67;1.30;;;;;;;21.78;62.69;96418.19;5064329;28;20452;-69
2022/09/15 02:50:44;;;;;;;2.73;1.47;;;;;;;21.74;63.04;96418.91;5059339;28;20183;-70
2022/09/15 02:53:10;;;;;;;4.07;1.20;;;;;;;21.75;63.00;96410.66;5067003;28;20210;-71
2022/09/15 02:55:35;;;;;;;7.43;1.37;;;;;;;21.68;63.34;96420.69;5063609;28;20294;-69
2022/09/15 02:58:01;;;;;;;4.03;1.60;;;;;;;21.61;63.76;96420.84;5065958;28;20210;-70
2022/09/15 03:00:27;;;;;;;2.20;1.30;;;;;;;21.65;63.58;96415.84;5064431;28;20840;-71
2022/09/15 03:02:53;;;;;;;2.27;1.10;;;;;;;21.72;63.31;96423.66;5067037;28;20193;-69
2022/09/15 03:05:25;;;;;;;1.83;1.20;;;;;;;21.70;63.50;96415.09;5066532;28;20217;-70
2022/09/15 03:07:52;;;;;;;1.77;1.53;;;;;;;21.70;63.58;96415.09;5066301;28;20448;-72
2022/09/15 03:10:17;;;;;;;1.30;1.10;;;;;;;21.72;63.15;96423.66;5068484;28;20424;-71
2022/09/15 03:12:46;;;;;;;5.07;1.20;;;;;;;21.61;63.54;96412.06;5061133;28;20495;-70
2022/09/15 03:15:13;;;;;;;2.13;1.50;;;;;;;21.65;63.57;96417.72;5067355;28;20277;-70
2022/09/15 03:17:40;;;;;;;2.70;1.30;;;;;;;21.56;63.41;96407.41;5060751;28;20445;-70
2022/09/15 03:20:07;;;;;;;1.80;1.20;;;;;;;21.43;64.35;96407.72;5067497;28;20425;-71
2022/09/15 03:22:33;;;;;;;4.37;1.20;;;;;;;21.43;64.12;96411.19;5061790;28;20992;-71
2022/09/15 03:24:58;;;;;;;1.70;1.30;;;;;;;21.47;63.96;96415.00;5057008;28;20542;-70
2022/09/15 03:27:24;;;;;;;4.50;1.60;;;;;;;21.40;64.43;96417.00;5066743;28;20291;-70
2022/09/15 03:29:49;;;;;;;7.20;1.30;;;;;;;21.50;63.67;96413.72;5057830;28;20234;-70
2022/09/15 03:32:15;;;;;;;1.50;1.10;;;;;;;21.52;63.45;96414.28;5049062;28;20264;-71
2022/09/15 03:34:40;;;;;;;3.87;1.20;;;;;;;21.55;63.57;96415.66;5062613;28;20644;-70
2022/09/15 03:37:06;;;;;;;2.07;1.10;;;;;;;21.50;63.83;96413.72;5055057;28;20214;-70
2022/09/15 03:39:31;;;;;;;1.83;1.30;;;;;;;21.46;64.00;96415.22;5052633;28;20183;-75
2022/09/15 03:41:57;;;;;;;2.13;1.53;;;;;;;21.41;64.02;96415.97;5032902;28;20187;-71
2022/09/15 03:44:23;;;;;;;2.57;1.50;;;;;;;21.38;64.13;96420.97;5050245;28;20187;-69
2022/09/15 03:46:48;;;;;;;5.30;1.57;;;;;;;21.33;64.41;96414.50;5050899;28;20278;-70
2022/09/15 03:49:13;;;;;;;2.60;1.20;;;;;;;21.45;64.11;96418.94;5048750;28;20179;-71
2022/09/15 03:51:39;;;;;;;3.00;1.60;;;;;;;21.38;64.09;96420.97;5047847;28;20278;-70
2022/09/15 03:54:04;;;;;;;2.90;1.50;;;;;;;21.41;64.00;96423.16;5050963;28;20194;-70
2022/09/15 03:56:31;;;;;;;1.77;1.27;;;;;;;21.43;63.72;96413.88;5049728;28;20643;-72
2022/09/15 03:59:00;;;;;;;3.00;1.30;;;;;;;21.44;64.22;96414.66;5046709;28;20190;-70
2022/09/15 04:01:26;;;;;;;6.37;1.60;;;;;;;21.45;64.08;96408.28;5053895;28;20966;-72
2022/09/15 04:03:52;;;;;;;1.73;1.20;;;;;;;21.45;63.97;96424.28;5050869;28;20422;-71
2022/09/15 04:06:19;;;;;;;2.13;1.40;;;;;;;21.36;64.42;96412.41;5056942;28;20183;-71
2022/09/15 04:08:45;;;;;;;8.23;1.30;;;;;;;21.35;64.58;96408.13;5051932;28;20207;-71
2022/09/15 04:11:11;;;;;;;1.20;1.00;;;;;;;21.45;63.92;96416.28;5048776;28;20729;-71
2022/09/15 04:13:38;;;;;;;2.67;1.50;;;;;;;21.50;63.78;96413.72;5050150;28;20183;-70
2022/09/15 04:16:06;;;;;;;2.13;1.23;;;;;;;21.52;63.73;96416.13;5050687;28;20530;-73
2022/09/15 04:18:32;;;;;;;1.93;1.20;;;;;;;21.53;63.67;96407.91;5042516;28;20457;-71
2022/09/15 04:20:59;;;;;;;2.50;1.40;;;;;;;21.22;64.47;96412.69;5048026;28;20429;-70
2022/09/15 04:23:25;;;;;;;4.77;1.60;;;;;;;21.36;64.17;96412.41;5044949;28;20244;-68
2022/09/15 04:25:58;;;;;;;4.00;1.20;;;;;;;21.35;63.99;96410.78;5046575;28;20497;-70
2022/09/15 04:28:24;;;;;;;5.60;1.63;;;;;;;21.29;64.32;96405.38;5048981;28;20214;-71
2022/09/15 04:30:50;;;;;;;4.63;1.40;;;;;;;21.28;64.44;96406.44;5050927;28;20437;-71
2022/09/15 04:33:16;;;;;;;1.63;1.20;;;;;;;21.13;65.01;96408.81;5050353;28;20433;-70
2022/09/15 04:35:41;;;;;;;4.00;1.30;;;;;;;21.22;64.43;96412.69;5045357;28;20213;-70
2022/09/15 04:38:07;;;;;;;1.60;1.40;;;;;;;21.31;64.38;96402.47;5049132;28;20199;-70
2022/09/15 04:40:32;;;;;;;2.20;1.20;;;;;;;21.34;64.24;96410.00;5050943;28;20182;-69
2022/09/15 04:42:58;;;;;;;2.60;1.53;;;;;;;21.36;63.70;96409.75;5050777;28;20203;-70
2022/09/15 04:45:23;;;;;;;4.90;1.17;;;;;;;21.39;63.75;96403.94;5047223;28;20927;-70
2022/09/15 04:47:50;;;;;;;1.87;1.30;;;;;;;21.41;63.62;96404.50;5049759;28;20199;-71
2022/09/15 04:50:16;;;;;;;1.93;1.10;;;;;;;21.35;63.71;96400.94;5015983;28;20197;-70
2022/09/15 04:52:41;;;;;;;3.30;1.37;;;;;;;21.33;63.55;96411.81;5032270;28;20422;-71
2022/09/15 04:55:08;;;;;;;2.40;1.23;;;;;;;21.09;64.27;96415.66;5049889;28;20186;-71
2022/09/15 04:57:33;;;;;;;2.67;1.43;;;;;;;21.21;63.94;96419.06;5031928;28;20199;-71
2022/09/15 04:59:59;;;;;;;3.00;1.10;;;;;;;21.16;63.83;96414.47;5049282;28;20989;-70
2022/09/15 05:02:25;;;;;;;1.53;1.13;;;;;;;21.21;63.55;96415.63;5014686;28;20189;-70
2022/09/15 05:04:50;;;;;;;3.30;1.30;;;;;;;21.22;63.56;96422.56;5007439;28;20185;-70
2022/09/15 05:07:17;;;;;;;2.90;1.17;;;;;;;20.95;64.09;96421.28;5055756;28;20813;-71
2022/09/15 05:09:42;;;;;;;2.70;1.07;;;;;;;21.05;64.07;96427.84;5045555;28;20602;-71
2022/09/15 05:12:08;;;;;;;4.93;1.30;;;;;;;21.16;63.58;96424.34;5035854;28;20466;-70
2022/09/15 05:14:33;;;;;;;3.43;1.20;;;;;;;21.02;63.83;96429.13;5034029;28;20187;-70
2022/09/15 05:16:59;;;;;;;2.50;1.20;;;;;;;21.09;64.03;96431.66;5032681;28;20290;-70
2022/09/15 05:19:24;;;;;;;1.17;1.03;;;;;;;20.99;64.43;96441.06;5033973;28;20277;-70
2022/09/15 05:21:50;;;;;;;3.30;1.10;;;;;;;21.01;64.61;96432.84;5031546;28;20187;-69
2022/09/15 05:24:15;;;;;;;1.60;1.10;;;;;;;21.00;64.50;96436.53;5042241;28;20666;-69
2022/09/15 05:26:41;;;;;;;4.20;1.17;;;;;;;21.10;64.23;96435.94;5049522;28;20183;-69
2022/09/15 05:29:06;;;;;;;2.07;1.23;;;;;;;21.11;64.13;96438.34;5044779;28;20194;-71
2022/09/15 05:31:32;;;;;;;8.73;1.30;;;;;;;21.16;64.33;96435.00;5050116;28;20232;-71
2022/09/15 05:34:03;;;;;;;1.87;1.10;;;;;;;21.13;64.39;96444.25;5047087;28;20183;-72
2022/09/15 05:36:28;;;;;;;4.03;1.30;;;;;;;21.09;64.38;96444.97;5050717;28;20457;-70
2022/09/15 05:38:58;;;;;;;2.07;1.30;;;;;;;21.13;64.13;96436.25;5049667;28;20452;-71
2022/09/15 05:41:25;;;;;;;1.90;1.10;;;;;;;21.09;64.40;96429.81;5044015;28;20201;-70
2022/09/15 05:43:50;;;;;;;4.70;1.43;;;;;;;21.12;64.01;96431.19;5039520;28;20430;-71
2022/09/15 05:46:17;;;;;;;1.60;1.00;;;;;;;21.17;64.26;96436.59;5035454;28;20769;-72
2022/09/15 05:48:43;;;;;;;1.53;0.90;;;;;;;20.95;64.69;96444.44;5036922;28;20727;-70
2022/09/15 05:51:09;;;;;;;2.37;1.00;;;;;;;21.06;64.12;96446.25;5051431;28;20433;-72
2022/09/15 05:53:35;;;;;;;2.17;1.00;;;;;;;21.06;64.47;96448.09;5052029;28;20437;-70
2022/09/15 05:56:05;;;;;;;1.10;0.90;;;;;;;21.13;63.97;96448.78;5056976;28;20286;-70
2022/09/15 05:58:31;;;;;;;2.27;1.10;;;;;;;21.08;64.37;96446.00;5052598;28;20215;-69
2022/09/15 06:01:03;;;;;;;2.30;1.00;;;;;;;21.11;64.27;96449.00;5057660;28;20432;-70
2022/09/15 06:03:28;;;;;;;2.67;1.10;;;;;;;21.12;64.05;96431.19;5053177;28;20224;-69
2022/09/15 06:05:58;;;;;;;3.03;1.03;;;;;;;21.11;64.43;96432.22;5045478;28;20903;-71
2022/09/15 06:08:24;;;;;;;4.90;1.43;;;;;;;21.07;64.09;96444.38;5035362;28;20210;-70
2022/09/15 06:10:49;;;;;;;1.80;0.80;;;;;;;21.13;64.12;96443.44;5042150;28;20424;-68
2022/09/15 06:13:14;;;;;;;1.63;1.20;;;;;;;21.19;63.97;96434.50;5052093;28;20195;-69
2022/09/15 06:15:40;;;;;;;1.10;1.00;;;;;;;21.15;63.85;96438.69;5041114;28;20249;-69
2022/09/15 06:18:05;;;;;;;1.93;0.90;;;;;;;21.21;64.26;96442.25;5042317;28;20231;-69
2022/09/15 06:20:31;;;;;;;1.93;1.00;;;;;;;21.21;63.86;96443.06;5041118;28;20179;-69
2022/09/15 06:22:56;;;;;;;5.43;1.10;;;;;;;21.29;63.82;96444.53;5043387;28;20191;-69
2022/09/15 06:25:22;;;;;;;1.40;0.90;;;;;;;21.28;63.72;96454.38;5064673;28;20194;-69
2022/09/15 06:27:48;;;;;;;4.50;1.10;;;;;;;21.29;63.83;96452.53;5068319;28;20206;-70
2022/09/15 06:30:13;;;;;;;3.83;1.00;;;;;;;21.12;64.36;96453.28;5051874;28;20203;-70
2022/09/15 06:32:39;;;;;;;2.00;1.13;;;;;;;21.14;64.60;96464.50;5055072;28;20420;-70
2022/09/15 06:35:06;;;;;;;1.73;1.00;;;;;;;21.15;64.82;96457.34;5045078;28;20286;-70
2022/09/15 06:37:32;;;;;;;1.30;0.80;;;;;;;21.15;64.90;96460.00;5062558;28;20433;-70
2022/09/15 06:39:58;;;;;;;3.43;1.10;;;;;;;21.10;64.97;96471.38;5047337;28;20473;-72
2022/09/15 06:42:23;;;;;;;3.60;1.10;;;;;;;21.25;64.94;96462.03;5040152;28;20461;-70
2022/09/15 06:44:49;;;;;;;4.33;1.10;;;;;;;21.29;65.17;96472.00;5052394;28;20179;-71
2022/09/15 06:47:14;;;;;;;1.47;1.07;;;;;;;21.33;64.97;96470.44;5049128;28;20249;-72
2022/09/15 06:49:40;;;;;;;1.70;1.07;;;;;;;21.32;65.46;96471.50;5048274;28;20226;-72
2022/09/15 06:52:05;;;;;;;3.73;1.00;;;;;;;21.37;65.18;96475.31;5041401;28;20620;-71
2022/09/15 06:54:31;;;;;;;2.17;0.93;;;;;;;21.23;65.82;96475.59;5062802;28;20185;-73
2022/09/15 06:56:56;;;;;;;2.50;0.90;;;;;;;21.26;66.32;96483.13;5052747;28;20261;-72
2022/09/15 06:59:23;;;;;;;2.07;1.00;;;;;;;21.29;65.95;96480.00;5040747;28;20219;-72
2022/09/15 07:01:52;;;;;;;1.47;0.90;;;;;;;21.22;66.73;96481.19;5050972;28;20188;-71
2022/09/15 07:04:18;;;;;;;2.23;0.90;;;;;;;21.25;66.76;96483.34;5040937;28;20492;-71
2022/09/15 07:06:44;;;;;;;1.80;1.00;;;;;;;21.26;66.76;96493.78;5056765;28;20443;-73
2022/09/15 07:09:09;;;;;;;2.00;1.10;;;;;;;21.30;67.08;96486.91;5064724;28;20418;-71
2022/09/15 07:11:35;;;;;;;2.30;1.13;;;;;;;21.31;67.69;96483.19;5063558;28;20182;-71
2022/09/15 07:14:01;;;;;;;1.63;1.00;;;;;;;21.29;67.49;96487.97;5057117;28;20813;-70
2022/09/15 07:16:26;;;;;;;5.33;1.00;;;;;;;21.25;67.62;96491.34;5063563;28;20279;-72
2022/09/15 07:18:55;;;;;;;2.60;1.37;;;;;;;21.26;67.63;96490.28;5061212;28;20258;-72
2022/09/15 07:21:21;;;;;;;2.10;1.00;;;;;;;21.31;67.80;96501.84;5047646;28;20183;-73
2022/09/15 07:23:47;;;;;;;3.07;1.30;;;;;;;21.31;67.88;96501.84;5059712;28;20433;-71
2022/09/15 07:26:15;;;;;;;3.17;1.20;;;;;;;21.33;68.05;96497.09;5054726;28;20540;-71
2022/09/15 07:28:42;;;;;;;2.60;1.13;;;;;;;21.36;68.16;96497.66;5065917;28;20444;-71
2022/09/15 07:31:10;;;;;;;1.37;1.00;;;;;;;21.38;68.13;96501.72;5055940;28;20427;-72
2022/09/15 07:33:35;;;;;;;5.40;0.97;;;;;;;21.39;68.33;96497.22;5068574;28;20444;-71
2022/09/15 07:36:02;;;;;;;2.03;1.17;;;;;;;21.39;68.70;96507.88;5065996;28;20460;-72
2022/09/15 07:38:28;;;;;;;2.13;1.00;;;;;;;21.36;68.85;96500.34;5068445;28;20251;-72
2022/09/15 07:40:53;;;;;;;4.23;1.13;;;;;;;21.40;68.60;96499.63;5066751;28;20421;-74
2022/09/15 07:43:19;;;;;;;4.73;1.30;;;;;;;21.45;68.46;96509.56;5051830;28;20187;-70
2022/09/15 07:45:45;;;;;;;3.77;1.00;;;;;;;21.45;68.23;96517.56;5060244;28;20236;-72
2022/09/15 07:48:10;;;;;;;1.43;0.80;;;;;;;21.45;68.41;96512.22;5063255;28;20202;-72
2022/09/15 07:50:36;;;;;;;4.73;1.30;;;;;;;21.42;68.53;96512.72;5063237;28;20178;-71
2022/09/15 07:53:02;;;;;;;5.23;1.10;;;;;;;21.36;68.67;96514.47;5065774;28;20189;-71
2022/09/15 07:55:29;;;;;;;3.53;1.00;;;;;;;21.33;68.65;96520.28;5068394;28;20186;-71
2022/09/15 07:58:01;;;;;;;2.87;1.00;;;;;;;21.32;68.60;96524.78;5065246;28;20959;-71
2022/09/15 08:00:27;;;;;;;2.13;0.90;;;;;;;21.29;69.17;96530.63;5053752;28;20417;-70
2022/09/15 08:02:52;;;;;;;2.43;1.07;;;;;;;21.30;68.94;96534.06;5066361;28;20465;-71
2022/09/15 08:05:18;;;;;;;4.40;1.00;;;;;;;21.28;68.82;96531.66;5063191;28;20183;-71
2022/09/15 08:07:43;;;;;;;1.20;0.90;;;;;;;21.23;69.56;96531.56;5067422;28;20229;-71
2022/09/15 08:10:09;;;;;;;3.43;1.30;;;;;;;21.26;69.03;96532.91;5064910;28;20209;-70
2022/09/15 08:12:35;;;;;;;2.13;1.07;;;;;;;21.18;69.26;96537.59;5061436;28;20189;-71
2022/09/15 08:15:01;;;;;;;4.80;1.27;;;;;;;21.25;69.47;96529.47;5065338;28;20183;-72
2022/09/15 08:17:26;;;;;;;1.53;0.90;;;;;;;21.24;69.14;96535.84;5054010;28;20591;-72
2022/09/15 08:19:52;;;;;;;1.60;0.97;;;;;;;21.24;69.65;96538.50;5049569;28;20442;-72
2022/09/15 08:22:17;;;;;;;2.10;0.90;;;;;;;21.22;69.83;96540.59;5058774;28;20207;-70
2022/09/15 08:24:43;;;;;;;1.87;0.90;;;;;;;21.18;69.48;96548.25;5055722;28;20224;-71
2022/09/15 08:27:09;;;;;;;5.53;1.17;;;;;;;21.21;69.61;96552.28;5063313;28;20276;-73
2022/09/15 08:29:34;;;;;;;2.70;1.00;;;;;;;21.23;69.60;96552.88;5063805;28;20313;-71
2022/09/15 08:32:00;;;;;;;2.93;0.83;;;;;;;21.24;69.49;96549.16;5066458;28;20991;-70
2022/09/15 08:34:27;;;;;;;1.50;1.10;;;;;;;21.28;69.74;96558.31;5066115;28;20261;-71
2022/09/15 08:36:52;;;;;;;1.27;0.90;;;;;;;21.24;69.25;96553.66;5064970;28;20247;-70
2022/09/15 08:39:18;;;;;;;6.77;1.33;;;;;;;21.30;69.36;96553.53;5059930;28;20505;-72
2022/09/15 08:41:45;;;;;;;1.50;1.10;;;;;;;21.29;69.99;96551.09;5059288;28;20193;-71
2022/09/15 08:44:34;;;;;;;2.40;1.20;;;;;;;21.36;70.03;96545.63;5065107;28;20182;-70
2022/09/15 08:47:05;;;;;;;2.37;0.97;;;;;;;21.39;69.71;96551.28;5056069;28;20433;-71
2022/09/15 08:49:43;;;;;;;1.87;1.03;;;;;;;21.47;69.73;96558.94;5051694;28;20441;-71
2022/09/15 08:52:14;;;;;;;1.80;1.20;;;;;;;21.51;69.59;96550.44;5059434;28;20414;-72
2022/09/15 08:54:40;;;;;;;4.70;1.07;;;;;;;21.55;69.20;96556.91;5070691;28;20425;-72
2022/09/15 08:57:09;;;;;;;3.43;1.20;;;;;;;21.56;69.43;96556.66;5053189;28;20519;-72
2022/09/15 08:59:36;;;;;;;3.30;1.27;;;;;;;21.54;69.53;96574.78;5061884;28;20187;-72
2022/09/15 09:02:11;;;;;;;2.43;1.20;;;;;;;21.57;69.51;96563.63;5063606;28;20575;-71
2022/09/15 09:05:10;;;;;;;3.87;1.30;;;;;;;21.63;69.52;96570.72;5049169;28;20973;-72
2022/09/15 09:07:48;;;;;;;1.50;1.03;;;;;;;21.62;69.06;96574.41;5066561;28;20520;-71
2022/09/15 09:10:40;;;;;;;2.70;1.23;;;;;;;21.68;69.32;96570.00;5063493;28;20425;-71
2022/09/15 09:13:24;;;;;;;3.47;1.50;;;;;;;21.74;69.19;96570.88;5063267;28;20444;-71
2022/09/15 09:15:58;;;;;;;1.90;1.17;;;;;;;21.77;69.48;96576.53;5059799;28;21011;-72
2022/09/15 09:18:32;;;;;;;2.50;1.33;;;;;;;21.82;69.06;96570.50;5067001;28;21078;-73
2022/09/15 09:21:16;;;;;;;2.50;1.07;;;;;;;21.77;68.69;96573.09;5050555;28;20425;-73
2022/09/15 09:23:59;;;;;;;2.30;1.40;;;;;;;21.77;69.20;96573.09;5048047;28;20783;-72
2022/09/15 09:26:27;;;;;;;1.97;1.50;;;;;;;21.90;68.82;96574.63;5056682;28;20483;-72
2022/09/15 09:29:00;;;;;;;3.10;1.10;;;;;;;21.98;68.92;96574.25;5061175;28;20524;-72
2022/09/15 09:31:27;;;;;;;5.80;1.20;;;;;;;22.03;68.54;96573.53;5055287;28;20426;-72
2022/09/15 09:34:01;;;;;;;5.20;1.10;;;;;;;22.03;68.14;96571.66;5065457;28;20417;-72
2022/09/15 09:36:26;;;;;;;2.60;1.10;;;;;;;22.09;68.36;96564.53;5052104;28;20882;-73
2022/09/15 09:38:52;;;;;;;2.00;0.90;;;;;;;22.06;68.19;96563.19;5059762;28;20445;-71
2022/09/15 09:41:25;;;;;;;2.90;1.30;;;;;;;22.11;68.11;96565.13;5063922;28;20538;-72
2022/09/15 09:43:52;;;;;;;1.60;1.10;;;;;;;22.08;67.95;96565.59;5063701;28;20251;-70
2022/09/15 09:46:19;;;;;;;4.83;1.40;;;;;;;22.11;67.49;96565.13;5046887;28;20425;-70
2022/09/15 09:48:53;;;;;;;2.30;1.33;;;;;;;22.10;67.62;96566.16;5057360;28;20440;-69
2022/09/15 09:51:51;;;;;;;1.33;1.00;;;;;;;22.08;67.87;96562.94;5061477;28;20547;-70
2022/09/15 09:54:19;;;;;;;2.70;1.00;;;;;;;22.06;67.40;96552.50;5069069;28;20420;-71
2022/09/15 09:56:48;;;;;;;1.60;0.80;;;;;;;22.10;67.69;96552.81;5069122;28;20986;-71
2022/09/15 09:59:33;;;;;;;1.80;0.93;;;;;;;22.15;67.73;96546.75;5063270;28;20417;-71
2022/09/15 10:02:11;;;;;;;1.10;0.80;;;;;;;22.19;67.80;96538.03;5069179;28;20785;-70
2022/09/15 10:04:37;;;;;;;1.10;0.70;;;;;;;22.29;67.71;96536.59;5053300;28;20817;-72
2022/09/15 10:07:03;;;;;;;1.47;0.90;;;;;;;22.23;67.00;96543.72;5059754;28;20445;-71
2022/09/15 10:09:29;;;;;;;1.10;0.80;;;;;;;22.28;66.53;96556.31;5052140;28;20449;-70
2022/09/15 10:11:57;;;;;;;4.40;3.30;;;;;;;22.17;66.05;96561.50;5065093;28;20471;-72
2022/09/15 10:14:32;;;;;;;4.00;3.60;;;;;;;22.13;66.12;96567.53;5068034;28;20569;-71
2022/09/15 10:17:14;;;;;;;8.73;7.30;;;;;;;22.08;66.26;96574.41;5056221;28;20476;-72
2022/09/15 10:19:48;;;;;;;2.00;1.20;;;;;;;22.01;66.29;96572.97;5059787;28;20921;-72
2022/09/15 10:22:37;;;;;;;4.07;3.40;;;;;;;21.94;66.71;96581.91;5058119;28;21013;-72
2022/09/15 10:25:25;;;;;;;3.10;1.47;;;;;;;21.83;66.76;96582.78;5057211;28;20762;-72
2022/09/15 10:28:13;;;;;;;1.40;1.20;;;;;;;21.75;66.73;96577.84;5057019;28;20444;-71
2022/09/15 10:31:06;;;;;;;3.73;2.70;;;;;;;21.66;66.16;96597.94;5049732;28;20433;-71
2022/09/15 10:33:37;;;;;;;14.83;12.90;;;;;;;21.56;66.11;96598.53;5054256;28;20516;-73
2022/09/15 10:36:05;;;;;;;1.90;1.40;;;;;;;21.49;65.28;96599.47;5066763;28;20461;-73
2022/09/15 10:39:22;;;;;;;7.67;4.90;;;;;;;21.36;65.95;96594.41;5052690;28;20448;-72
2022/09/15 10:42:03;;;;;;;5.63;4.73;;;;;;;21.31;65.67;96605.78;5023881;28;20431;-73
2022/09/15 10:44:31;;;;;;;1.67;1.57;;;;;;;21.22;65.73;96604.53;5035207;28;20419;-72
2022/09/15 10:47:27;;;;;;;2.20;2.00;;;;;;;21.22;65.81;96606.41;5034181;28;20423;-72
2022/09/15 10:50:09;;;;;;;2.43;1.00;;;;;;;21.05;65.72;96606.28;5052482;28;20433;-72
2022/09/15 10:52:52;;;;;;;3.30;0.90;;;;;;;20.95;66.19;96612.22;5050739;28;20956;-73
2022/09/15 10:55:38;;;;;;;1.10;0.77;;;;;;;20.95;66.31;96614.88;5064291;28;20544;-73
2022/09/15 10:58:09;;;;;;;1.53;0.80;;;;;;;20.96;66.03;96606.66;5047587;28;20484;-72
2022/09/15 11:00:53;;;;;;;0.90;0.60;;;;;;;20.91;65.08;96619.06;5056138;28;20889;-71
2022/09/15 11:03:48;;;;;;;2.07;1.10;;;;;;;20.83;65.58;96613.06;5061666;28;20473;-71
2022/09/15 11:06:58;;;;;;;4.47;3.83;;;;;;;20.74;65.80;96626.91;5067992;28;20452;-70
2022/09/15 11:09:45;;;;;;;2.77;2.57;;;;;;;20.65;65.32;96632.59;5053221;28;20432;-71
2022/09/15 11:12:50;;;;;;;3.43;1.53;;;;;;;20.52;65.66;96627.47;5057542;28;20856;-72
2022/09/15 11:15:47;;;;;;;1.70;1.60;;;;;;;20.50;65.78;96629.56;5064969;28;20419;-70
2022/09/15 11:18:18;;;;;;;2.90;1.30;;;;;;;20.46;66.18;96639.03;5064198;28;20481;-72
2022/09/15 11:20:59;;;;;;;7.53;4.70;;;;;;;20.41;65.48;96645.84;5053146;28;20433;-71
2022/09/15 11:23:34;;;;;;;6.30;4.10;;;;;;;20.40;65.18;96652.22;5061264;28;20932;-71
2022/09/15 11:26:04;;;;;;;6.67;5.03;;;;;;;20.35;64.46;96649.44;5058950;28;20413;-72
2022/09/15 11:28:38;;;;;;;4.70;2.13;;;;;;;20.25;64.05;96651.84;5045816;28;20485;-73
2022/09/15 11:31:06;;;;;;;3.73;1.47;;;;;;;20.17;63.81;96658.28;5064299;28;20469;-71
2022/09/15 11:33:45;;;;;;;2.57;2.00;;;;;;;20.15;63.77;96660.38;5044443;28;20426;-71
2022/09/15 11:36:14;;;;;;;1.97;1.73;;;;;;;20.04;63.60;96669.13;5062670;28;20874;-72
2022/09/15 11:38:54;;;;;;;1.93;1.47;;;;;;;19.89;63.31;96672.19;5061940;28;20437;-71
2022/09/15 11:41:26;;;;;;;2.73;1.83;;;;;;;19.84;64.23;96674.66;5063344;28;20477;-72
2022/09/15 11:44:12;;;;;;;3.40;1.70;;;;;;;19.74;64.71;96678.69;5065228;28;20421;-71
2022/09/15 11:46:47;;;;;;;3.87;1.77;;;;;;;19.78;64.80;96687.81;5058122;28;21077;-71
2022/09/15 11:49:19;;;;;;;1.90;1.80;;;;;;;19.79;65.04;96683.31;5063973;28;20481;-71
2022/09/15 11:51:51;;;;;;;3.40;1.80;;;;;;;19.74;64.56;96688.47;5058923;28;20506;-71